Time;durP1;ratioP1;P1;durP2;ratioP2;P2;SDS_P1;SDS_P2;PMS_P1;PMS_P2;Temp;Humidity;BMP_temperature;BMP_pressure;BME280_temperature;BME280_humidity;BME280_pressure;Samples;Min_cycle;Max_cycle;Signal;HPM_P1;HPM_P2
2021/07/02 00:00:11;;;;;;;6.57;4.55;;;;;;;;;;5072343;28;20404;-60
2021/07/02 00:02:57;;;;;;;6.82;3.72;;;;;;;;;;5072712;28;20131;-61
2021/07/02 00:05:24;;;;;;;4.82;3.58;;;;;;;;;;5072429;28;20052;-61
2021/07/02 00:07:50;;;;;;;6.35;3.70;;;;;;;;;;5055356;28;20496;-61
2021/07/02 00:10:16;;;;;;;4.78;3.42;;;;;;;;;;5072109;28;20062;-61
2021/07/02 00:12:43;;;;;;;6.95;3.42;;;;;;;;;;5054366;28;20072;-61
2021/07/02 00:15:09;;;;;;;7.90;3.25;;;;;;;;;;5072219;28;20048;-60
2021/07/02 00:17:35;;;;;;;5.00;3.47;;;;;;;;;;5072367;28;20044;-61
2021/07/02 00:20:02;;;;;;;4.15;3.22;;;;;;;;;;5072615;28;20064;-61
2021/07/02 00:22:28;;;;;;;5.22;3.50;;;;;;;;;;5072158;28;20056;-61
2021/07/02 00:24:55;;;;;;;8.00;3.42;;;;;;;;;;5071841;28;20052;-61
2021/07/02 00:27:21;;;;;;;4.50;3.22;;;;;;;;;;5072168;28;20052;-61
2021/07/02 00:29:48;;;;;;;5.50;2.80;;;;;;;;;;5071870;28;20036;-61
2021/07/02 00:32:14;;;;;;;5.63;3.10;;;;;;;;;;5072496;28;20044;-60
2021/07/02 00:34:40;;;;;;;5.13;3.10;;;;;;;;;;5072283;28;20072;-61
2021/07/02 00:37:07;;;;;;;5.97;3.10;;;;;;;;;;5053964;28;20048;-61
2021/07/02 00:39:33;;;;;;;5.15;3.55;;;;;;;;;;5054020;28;20044;-61
2021/07/02 00:42:00;;;;;;;6.05;2.78;;;;;;;;;;5054058;28;20076;-61
2021/07/02 00:44:37;;;;;;;5.05;3.10;;;;;;;;;;5071876;28;20041;-61
2021/07/02 00:47:04;;;;;;;4.00;2.38;;;;;;;;;;5067504;28;20514;-61
2021/07/02 00:49:31;;;;;;;11.23;3.17;;;;;;;;;;5079004;28;20059;-61
2021/07/02 00:51:58;;;;;;;8.90;3.08;;;;;;;;;;5054270;28;20140;-61
2021/07/02 00:54:25;;;;;;;5.25;2.38;;;;;;;;;;5054155;28;20416;-60
2021/07/02 00:56:53;;;;;;;5.20;2.47;;;;;;;;;;5054518;28;20521;-61
2021/07/02 00:59:19;;;;;;;6.75;2.90;;;;;;;;;;5054170;28;20045;-61
2021/07/02 01:01:47;;;;;;;3.40;2.45;;;;;;;;;;5088504;28;20068;-61
2021/07/02 01:04:14;;;;;;;11.13;3.20;;;;;;;;;;5054034;28;20082;-61
2021/07/02 01:06:40;;;;;;;5.55;2.35;;;;;;;;;;5054180;28;20040;-61
2021/07/02 01:09:10;;;;;;;4.85;2.90;;;;;;;;;;5071902;28;20452;-61
2021/07/02 01:11:38;;;;;;;6.72;3.15;;;;;;;;;;5054301;28;20443;-61
2021/07/02 01:14:06;;;;;;;4.20;2.38;;;;;;;;;;5054394;28;20044;-61
2021/07/02 01:16:33;;;;;;;5.10;2.70;;;;;;;;;;5054396;28;20106;-60
2021/07/02 01:19:01;;;;;;;5.97;2.58;;;;;;;;;;5071843;28;20056;-59
2021/07/02 01:21:27;;;;;;;9.90;3.03;;;;;;;;;;5037541;28;20498;-61
2021/07/02 01:23:53;;;;;;;4.88;2.40;;;;;;;;;;5071784;28;20048;-61
2021/07/02 01:26:20;;;;;;;3.95;2.60;;;;;;;;;;5054153;28;20048;-60
2021/07/02 01:28:47;;;;;;;5.63;2.85;;;;;;;;;;5054584;28;20052;-60
2021/07/02 01:31:13;;;;;;;3.50;2.30;;;;;;;;;;5054090;28;20052;-61
2021/07/02 01:33:40;;;;;;;3.65;2.20;;;;;;;;;;5071762;28;20174;-61
2021/07/02 01:36:07;;;;;;;4.60;2.40;;;;;;;;;;5071784;28;20064;-60
2021/07/02 01:38:34;;;;;;;5.22;2.50;;;;;;;;;;5053698;28;20056;-61
2021/07/02 01:41:01;;;;;;;3.70;2.58;;;;;;;;;;5054624;28;20048;-60
2021/07/02 01:43:27;;;;;;;4.18;2.33;;;;;;;;;;5053995;28;20127;-60
2021/07/02 01:45:55;;;;;;;4.88;2.72;;;;;;;;;;5053951;28;20056;-60
2021/07/02 01:48:21;;;;;;;4.15;2.80;;;;;;;;;;5053787;28;20051;-60
2021/07/02 01:50:49;;;;;;;5.43;3.13;;;;;;;;;;5053864;28;20045;-61
2021/07/02 01:53:17;;;;;;;4.40;2.80;;;;;;;;;;5064806;28;20078;-61
2021/07/02 01:55:44;;;;;;;3.42;2.40;;;;;;;;;;5071286;28;20449;-60
2021/07/02 01:58:10;;;;;;;6.93;2.90;;;;;;;;;;5071579;28;20056;-60
2021/07/02 02:00:42;;;;;;;6.18;2.60;;;;;;;;;;5053822;28;20059;-61
2021/07/02 02:03:14;;;;;;;4.22;3.20;;;;;;;;;;5075263;28;20075;-60
2021/07/02 02:05:42;;;;;;;3.90;2.50;;;;;;;;;;5057181;28;20044;-60
2021/07/02 02:08:09;;;;;;;4.10;2.85;;;;;;;;;;5057475;28;20453;-60
2021/07/02 02:10:37;;;;;;;5.78;2.95;;;;;;;;;;5057998;28;20484;-60
2021/07/02 02:13:05;;;;;;;9.30;3.40;;;;;;;;;;5057151;28;20549;-61
2021/07/02 02:15:32;;;;;;;5.15;3.20;;;;;;;;;;5057205;28;20044;-61
2021/07/02 02:18:00;;;;;;;4.47;3.00;;;;;;;;;;5057041;28;20059;-61
2021/07/02 02:20:28;;;;;;;4.18;2.83;;;;;;;;;;5056962;28;20044;-61
2021/07/02 02:22:55;;;;;;;4.30;2.75;;;;;;;;;;5075464;28;20128;-60
2021/07/02 02:25:21;;;;;;;4.32;3.05;;;;;;;;;;5057010;28;20072;-61
2021/07/02 02:27:50;;;;;;;3.83;2.70;;;;;;;;;;5057158;28;20063;-61
2021/07/02 02:30:17;;;;;;;4.20;3.10;;;;;;;;;;5057049;28;20149;-61
2021/07/02 02:32:44;;;;;;;8.50;3.25;;;;;;;;;;5056865;28;20076;-60
2021/07/02 02:35:21;;;;;;;4.45;3.20;;;;;;;;;;5074304;28;20059;-61
2021/07/02 02:37:49;;;;;;;5.05;3.30;;;;;;;;;;5074045;28;20044;-61
2021/07/02 02:40:16;;;;;;;6.25;2.85;;;;;;;;;;5056654;28;20186;-60
2021/07/02 02:42:43;;;;;;;8.55;3.65;;;;;;;;;;5056629;28;20507;-61
2021/07/02 02:45:09;;;;;;;4.97;3.20;;;;;;;;;;5074378;28;20036;-61
2021/07/02 02:47:36;;;;;;;4.90;3.20;;;;;;;;;;5074569;28;20055;-61
2021/07/02 02:50:04;;;;;;;9.18;3.35;;;;;;;;;;5056750;28;20080;-61
2021/07/02 02:52:31;;;;;;;5.60;3.45;;;;;;;;;;5080145;28;20477;-60
2021/07/02 02:54:58;;;;;;;6.72;3.50;;;;;;;;;;5075273;28;20044;-61
2021/07/02 02:57:25;;;;;;;6.35;3.78;;;;;;;;;;5089821;28;20096;-60
2021/07/02 02:59:51;;;;;;;6.30;3.50;;;;;;;;;;5076414;28;20056;-61
2021/07/02 03:02:19;;;;;;;9.93;3.80;;;;;;;;;;5056377;28;20053;-60
2021/07/02 03:04:48;;;;;;;5.93;4.05;;;;;;;;;;5073168;28;20060;-61
2021/07/02 03:07:14;;;;;;;5.35;3.42;;;;;;;;;;5056279;28;20124;-61
2021/07/02 03:09:41;;;;;;;8.13;3.75;;;;;;;;;;5056271;28;20040;-61
2021/07/02 03:12:07;;;;;;;5.82;3.60;;;;;;;;;;5055746;28;20041;-60
2021/07/02 03:14:34;;;;;;;5.38;3.60;;;;;;;;;;5073589;28;20070;-60
2021/07/02 03:17:00;;;;;;;6.13;3.60;;;;;;;;;;5074078;28;20514;-61
2021/07/02 03:19:32;;;;;;;6.35;4.00;;;;;;;;;;5055344;28;20496;-61
2021/07/02 03:21:59;;;;;;;6.78;3.30;;;;;;;;;;5055628;28;20040;-60
2021/07/02 03:24:26;;;;;;;6.70;4.00;;;;;;;;;;5055086;28;20405;-61
2021/07/02 03:26:53;;;;;;;5.28;3.38;;;;;;;;;;5055235;28;20141;-61
2021/07/02 03:29:21;;;;;;;6.25;3.78;;;;;;;;;;5055034;28;20048;-60
2021/07/02 03:31:48;;;;;;;5.55;3.72;;;;;;;;;;5055891;28;20048;-60
2021/07/02 03:34:15;;;;;;;6.68;3.90;;;;;;;;;;5072627;28;20056;-60
2021/07/02 03:36:42;;;;;;;7.60;4.20;;;;;;;;;;5055344;28;20116;-60
2021/07/02 03:39:09;;;;;;;7.40;4.38;;;;;;;;;;5055476;28;20105;-60
2021/07/02 03:41:37;;;;;;;6.50;4.00;;;;;;;;;;5073468;28;20086;-61
2021/07/02 03:44:03;;;;;;;6.68;4.40;;;;;;;;;;5055874;28;20068;-61
2021/07/02 03:46:30;;;;;;;6.57;4.05;;;;;;;;;;5072132;28;20044;-61
2021/07/02 03:48:58;;;;;;;7.68;4.95;;;;;;;;;;5055167;28;20531;-61
2021/07/02 03:51:25;;;;;;;7.38;4.07;;;;;;;;;;5074265;28;20064;-60
2021/07/02 03:53:51;;;;;;;7.07;4.53;;;;;;;;;;5079546;28;20055;-61
2021/07/02 03:56:18;;;;;;;8.32;4.63;;;;;;;;;;5055726;28;20106;-61
2021/07/02 03:58:44;;;;;;;8.27;4.38;;;;;;;;;;5073516;28;20052;-60
2021/07/02 04:01:10;;;;;;;6.82;4.13;;;;;;;;;;5072618;28;20074;-60
2021/07/02 04:03:37;;;;;;;9.10;5.22;;;;;;;;;;5072556;28;20048;-60
2021/07/02 04:06:03;;;;;;;8.95;4.75;;;;;;;;;;5073029;28;20093;-60
2021/07/02 04:08:29;;;;;;;7.82;4.85;;;;;;;;;;5074435;28;20127;-60
2021/07/02 04:10:56;;;;;;;9.38;3.90;;;;;;;;;;5090296;28;20059;-61
2021/07/02 04:13:22;;;;;;;6.97;3.97;;;;;;;;;;5073229;28;20049;-60
2021/07/02 04:15:49;;;;;;;9.77;4.28;;;;;;;;;;5072835;28;20041;-60
2021/07/02 04:18:15;;;;;;;9.88;4.72;;;;;;;;;;5072176;28;20519;-60
2021/07/02 04:20:42;;;;;;;7.90;4.78;;;;;;;;;;5072725;28;20048;-61
2021/07/02 04:23:08;;;;;;;7.63;4.70;;;;;;;;;;5072495;28;20206;-61
2021/07/02 04:25:34;;;;;;;8.80;5.00;;;;;;;;;;5071747;28;20400;-60
2021/07/02 04:28:01;;;;;;;9.27;5.10;;;;;;;;;;5072469;28;20123;-60
2021/07/02 04:30:27;;;;;;;7.10;4.75;;;;;;;;;;5072241;28;20051;-61
2021/07/02 04:32:53;;;;;;;8.23;5.20;;;;;;;;;;5071474;28;20121;-60
2021/07/02 04:35:20;;;;;;;9.32;5.55;;;;;;;;;;5070435;28;20062;-60
2021/07/02 04:37:46;;;;;;;9.00;5.18;;;;;;;;;;5073925;28;20627;-60
2021/07/02 04:40:13;;;;;;;9.52;5.78;;;;;;;;;;5057678;28;20047;-60
2021/07/02 04:42:39;;;;;;;8.80;5.13;;;;;;;;;;5074072;28;20098;-60
2021/07/02 04:45:06;;;;;;;9.57;5.30;;;;;;;;;;5072477;28;20113;-60
2021/07/02 04:47:32;;;;;;;8.93;5.45;;;;;;;;;;5068297;28;20064;-60
2021/07/02 04:50:02;;;;;;;9.20;6.05;;;;;;;;;;5077812;28;20044;-60
2021/07/02 04:52:28;;;;;;;9.77;5.55;;;;;;;;;;5086763;28;20500;-61
2021/07/02 04:54:54;;;;;;;8.93;5.22;;;;;;;;;;5073509;28;20048;-60
2021/07/02 04:57:21;;;;;;;10.68;6.78;;;;;;;;;;5072696;28;20044;-60
2021/07/02 04:59:49;;;;;;;9.00;6.03;;;;;;;;;;5069911;28;20702;-60
2021/07/02 05:02:17;;;;;;;9.60;6.18;;;;;;;;;;5070396;28;20103;-60
2021/07/02 05:04:43;;;;;;;11.88;6.32;;;;;;;;;;5072375;28;20074;-60
2021/07/02 05:07:11;;;;;;;9.27;5.80;;;;;;;;;;5072841;28;20412;-60
2021/07/02 05:09:37;;;;;;;9.55;6.00;;;;;;;;;;5072805;28;20498;-61
2021/07/02 05:12:04;;;;;;;14.60;8.25;;;;;;;;;;5070034;28;20407;-61
2021/07/02 05:14:30;;;;;;;13.43;8.40;;;;;;;;;;5055192;28;20407;-60
2021/07/02 05:16:57;;;;;;;16.77;9.35;;;;;;;;;;5071709;28;20492;-60
2021/07/02 05:19:23;;;;;;;14.95;9.32;;;;;;;;;;5053502;28;20480;-61
2021/07/02 05:21:49;;;;;;;15.73;9.30;;;;;;;;;;5071935;28;20131;-60
2021/07/02 05:24:16;;;;;;;20.08;10.85;;;;;;;;;;5071392;28;20090;-60
2021/07/02 05:26:42;;;;;;;15.85;10.35;;;;;;;;;;5071481;28;20064;-60
2021/07/02 05:29:08;;;;;;;17.23;10.93;;;;;;;;;;5071557;28;20102;-60
2021/07/02 05:31:35;;;;;;;21.70;12.50;;;;;;;;;;5070584;28;20053;-60
2021/07/02 05:34:01;;;;;;;23.27;13.77;;;;;;;;;;5053875;28;20135;-60
2021/07/02 05:36:27;;;;;;;23.33;14.38;;;;;;;;;;5074291;28;20488;-60
2021/07/02 05:38:54;;;;;;;27.33;14.43;;;;;;;;;;5075474;28;20153;-60
2021/07/02 05:41:20;;;;;;;30.80;15.70;;;;;;;;;;5075187;28;20044;-61
2021/07/02 05:43:48;;;;;;;27.65;15.55;;;;;;;;;;5075424;28;20059;-60
2021/07/02 05:46:15;;;;;;;24.85;12.90;;;;;;;;;;5075289;28;20503;-61
2021/07/02 05:48:41;;;;;;;24.40;12.80;;;;;;;;;;5074958;28;20101;-61
2021/07/02 05:51:07;;;;;;;26.13;14.32;;;;;;;;;;5075016;28;20040;-61
2021/07/02 05:53:34;;;;;;;28.77;15.02;;;;;;;;;;5075030;28;20083;-62
2021/07/02 05:56:00;;;;;;;25.83;15.07;;;;;;;;;;5075565;28;20052;-60
2021/07/02 05:58:26;;;;;;;27.15;14.30;;;;;;;;;;5074480;28;20052;-60
2021/07/02 06:00:53;;;;;;;25.92;15.77;;;;;;;;;;5074392;28;20091;-61
2021/07/02 06:03:20;;;;;;;25.15;14.10;;;;;;;;;;5057035;28;20054;-60
2021/07/02 06:05:46;;;;;;;26.67;15.15;;;;;;;;;;5075060;28;20044;-61
2021/07/02 06:08:12;;;;;;;28.05;15.45;;;;;;;;;;5058245;28;20052;-61
2021/07/02 06:10:38;;;;;;;30.77;16.80;;;;;;;;;;5064831;28;20051;-61
2021/07/02 06:13:05;;;;;;;27.15;16.65;;;;;;;;;;5069491;28;20048;-61
2021/07/02 06:15:32;;;;;;;26.77;15.98;;;;;;;;;;5072708;28;20045;-61
2021/07/02 06:18:05;;;;;;;26.33;17.00;;;;;;;;;;5072727;28;20045;-61
2021/07/02 06:20:31;;;;;;;29.77;17.42;;;;;;;;;;5071592;28;20046;-61
2021/07/02 06:22:57;;;;;;;24.98;15.68;;;;;;;;;;5074441;28;20059;-60
2021/07/02 06:25:24;;;;;;;28.23;17.17;;;;;;;;;;5072940;28;20086;-60
2021/07/02 06:27:50;;;;;;;27.55;16.70;;;;;;;;;;5055739;28;20456;-60
2021/07/02 06:30:16;;;;;;;25.35;15.27;;;;;;;;;;5074314;28;20087;-60
2021/07/02 06:32:43;;;;;;;23.75;14.80;;;;;;;;;;5078041;28;20044;-60
2021/07/02 06:35:09;;;;;;;24.35;15.35;;;;;;;;;;5090445;28;20058;-61
2021/07/02 06:37:35;;;;;;;28.40;17.52;;;;;;;;;;5090473;28;20051;-60
2021/07/02 06:40:02;;;;;;;28.38;16.48;;;;;;;;;;5072539;28;20389;-60
2021/07/02 06:42:29;;;;;;;27.92;17.33;;;;;;;;;;5055528;28;20480;-60
2021/07/02 06:44:55;;;;;;;32.85;17.65;;;;;;;;;;5075303;28;20055;-60
2021/07/02 06:47:21;;;;;;;19.13;12.63;;;;;;;;;;5056040;28;20127;-60
2021/07/02 06:49:47;;;;;;;16.38;11.07;;;;;;;;;;5076415;28;20068;-60
2021/07/02 06:52:14;;;;;;;16.27;9.40;;;;;;;;;;5072578;28;20050;-60
2021/07/02 06:54:40;;;;;;;20.75;9.98;;;;;;;;;;5073783;28;20051;-60
2021/07/02 06:57:08;;;;;;;12.05;8.02;;;;;;;;;;5073056;28;20037;-60
2021/07/02 06:59:39;;;;;;;14.45;8.25;;;;;;;;;;5055479;28;20070;-60
2021/07/02 07:02:09;;;;;;;12.85;7.25;;;;;;;;;;5073507;28;20059;-60
2021/07/02 07:04:35;;;;;;;11.00;6.53;;;;;;;;;;5072744;28;20121;-60
2021/07/02 07:07:05;;;;;;;11.00;7.10;;;;;;;;;;5073310;28;20060;-60
2021/07/02 07:09:32;;;;;;;9.85;6.32;;;;;;;;;;5078585;28;20510;-60
2021/07/02 07:11:58;;;;;;;11.57;5.82;;;;;;;;;;5065686;28;20044;-60
2021/07/02 07:14:25;;;;;;;9.23;5.53;;;;;;;;;;5070531;28;20052;-60
2021/07/02 07:16:51;;;;;;;8.43;5.45;;;;;;;;;;5073565;28;20511;-60
2021/07/02 07:19:18;;;;;;;9.73;6.07;;;;;;;;;;5054071;28;20048;-60
2021/07/02 07:21:44;;;;;;;9.68;6.15;;;;;;;;;;5072706;28;20048;-61
2021/07/02 07:24:10;;;;;;;8.95;5.72;;;;;;;;;;5071333;28;20488;-60
2021/07/02 07:26:37;;;;;;;11.02;6.63;;;;;;;;;;5072694;28;20127;-60
2021/07/02 07:29:05;;;;;;;9.48;6.03;;;;;;;;;;5073270;28;20041;-60
2021/07/02 07:31:31;;;;;;;8.73;5.57;;;;;;;;;;5071078;28;20055;-60
2021/07/02 07:33:59;;;;;;;20.98;6.32;;;;;;;;;;5072714;28;20089;-60
2021/07/02 07:36:25;;;;;;;9.32;5.90;;;;;;;;;;5072859;28;20040;-61
2021/07/02 07:38:51;;;;;;;12.50;6.18;;;;;;;;;;5075430;28;20127;-61
2021/07/02 07:41:20;;;;;;;8.95;5.72;;;;;;;;;;5079450;28;20071;-61
2021/07/02 07:43:46;;;;;;;13.10;6.10;;;;;;;;;;5080868;28;20499;-61
2021/07/02 07:46:12;;;;;;;12.23;6.35;;;;;;;;;;5056747;28;20044;-61
2021/07/02 07:48:39;;;;;;;18.52;6.15;;;;;;;;;;5071935;28;20041;-61
2021/07/02 07:53:43;;;;;;;9.48;6.10;;;;;;;;;;5072268;28;20047;-61
2021/07/02 07:56:10;;;;;;;13.20;6.25;;;;;;;;;;5072282;28;20083;-61
2021/07/02 07:58:37;;;;;;;12.80;6.68;;;;;;;;;;5072487;28;20102;-61
2021/07/02 08:01:03;;;;;;;9.75;6.05;;;;;;;;;;5071566;28;20056;-61
2021/07/02 08:03:29;;;;;;;10.65;5.55;;;;;;;;;;5072309;28;20047;-61
2021/07/02 08:05:56;;;;;;;7.13;4.80;;;;;;;;;;5054567;28;20117;-61
2021/07/02 08:08:22;;;;;;;9.95;6.40;;;;;;;;;;5071728;28;20054;-61
2021/07/02 08:10:50;;;;;;;10.95;6.60;;;;;;;;;;5072252;28;20045;-61
2021/07/02 08:13:16;;;;;;;10.40;6.20;;;;;;;;;;5072092;28;20139;-61
2021/07/02 08:15:42;;;;;;;12.52;5.90;;;;;;;;;;5071921;28;20048;-61
2021/07/02 08:18:09;;;;;;;8.85;5.78;;;;;;;;;;5053652;28;20475;-61
2021/07/02 08:20:35;;;;;;;8.55;5.53;;;;;;;;;;5071708;28;20072;-61
2021/07/02 08:23:02;;;;;;;8.82;5.65;;;;;;;;;;5072219;28;20054;-61
2021/07/02 08:25:28;;;;;;;12.00;6.43;;;;;;;;;;5071674;28;20048;-61
2021/07/02 08:30:40;;;;;;;11.55;6.07;;;;;;;;;;5071604;28;20110;-61
2021/07/02 08:33:06;;;;;;;7.80;5.38;;;;;;;;;;5071800;28;20534;-61
2021/07/02 08:35:32;;;;;;;11.35;5.93;;;;;;;;;;5061662;28;20052;-61
2021/07/02 08:37:58;;;;;;;9.20;5.60;;;;;;;;;;5082701;28;20146;-62
2021/07/02 08:40:25;;;;;;;8.30;5.88;;;;;;;;;;5080085;28;20043;-61
2021/07/02 08:42:51;;;;;;;9.13;6.20;;;;;;;;;;5072436;28;20122;-62
2021/07/02 08:45:18;;;;;;;8.27;5.18;;;;;;;;;;5071492;28;20071;-61
2021/07/02 08:47:44;;;;;;;11.75;6.72;;;;;;;;;;5071634;28;20040;-61
2021/07/02 08:50:11;;;;;;;7.95;5.53;;;;;;;;;;5071526;28;20103;-61
2021/07/02 08:52:37;;;;;;;8.60;5.00;;;;;;;;;;5071574;28;20045;-61
2021/07/02 08:55:04;;;;;;;10.70;6.53;;;;;;;;;;5071412;28;20048;-61
2021/07/02 08:57:31;;;;;;;8.70;5.80;;;;;;;;;;5053024;28;20537;-61
2021/07/02 08:59:59;;;;;;;10.40;6.50;;;;;;;;;;5071472;28;20076;-62
2021/07/02 09:02:29;;;;;;;11.32;6.25;;;;;;;;;;5071838;28;20047;-61
2021/07/02 09:04:56;;;;;;;10.45;6.65;;;;;;;;;;5072241;28;20041;-62
2021/07/02 09:07:23;;;;;;;14.00;5.75;;;;;;;;;;5071156;28;20504;-61
2021/07/02 09:09:57;;;;;;;9.43;6.30;;;;;;;;;;5071545;28;20040;-61
2021/07/02 09:12:27;;;;;;;11.30;7.20;;;;;;;;;;5071631;28;20071;-62
2021/07/02 09:14:57;;;;;;;11.15;5.90;;;;;;;;;;5071786;28;20049;-62
2021/07/02 09:17:24;;;;;;;12.20;6.70;;;;;;;;;;5071519;28;20095;-62
2021/07/02 09:20:09;;;;;;;9.68;6.75;;;;;;;;;;5076068;28;20054;-62
2021/07/02 09:22:48;;;;;;;8.65;5.10;;;;;;;;;;5079692;28;20044;-62
2021/07/02 09:25:25;;;;;;;11.07;6.45;;;;;;;;;;5073022;28;20044;-62
2021/07/02 09:27:53;;;;;;;9.82;6.38;;;;;;;;;;5071637;28;20076;-62
2021/07/02 09:30:20;;;;;;;14.23;7.18;;;;;;;;;;5071687;28;20123;-62
2021/07/02 09:32:48;;;;;;;10.52;6.57;;;;;;;;;;5071475;28;20040;-62
2021/07/02 09:35:16;;;;;;;9.68;6.25;;;;;;;;;;5059429;28;20068;-62
2021/07/02 09:37:45;;;;;;;11.63;6.97;;;;;;;;;;5082809;28;20048;-62
2021/07/02 09:40:21;;;;;;;10.75;6.25;;;;;;;;;;5073921;28;20075;-62
2021/07/02 09:43:00;;;;;;;8.48;5.50;;;;;;;;;;5053598;28;20077;-62
2021/07/02 09:45:26;;;;;;;10.38;6.78;;;;;;;;;;5071409;28;20127;-62
2021/07/02 09:47:54;;;;;;;8.55;5.07;;;;;;;;;;5071182;28;20117;-62
2021/07/02 09:50:21;;;;;;;8.90;5.85;;;;;;;;;;5053393;28;20484;-62
2021/07/02 09:52:47;;;;;;;9.95;5.50;;;;;;;;;;5071344;28;20460;-62
2021/07/02 09:55:15;;;;;;;8.55;5.75;;;;;;;;;;5071086;28;20068;-62
2021/07/02 09:57:41;;;;;;;8.95;5.80;;;;;;;;;;5071185;28;20102;-62
2021/07/02 10:00:09;;;;;;;9.40;5.78;;;;;;;;;;5071235;28;20052;-62
2021/07/02 10:02:55;;;;;;;8.73;5.78;;;;;;;;;;5071328;28;20051;-62
2021/07/02 10:05:21;;;;;;;11.98;5.80;;;;;;;;;;5063761;28;20041;-62
2021/07/02 10:07:57;;;;;;;7.35;4.38;;;;;;;;;;5087153;28;20064;-62
2021/07/02 10:10:27;;;;;;;12.27;6.97;;;;;;;;;;5070884;28;20397;-62
2021/07/02 10:12:54;;;;;;;10.57;6.03;;;;;;;;;;5053501;28;20053;-62
2021/07/02 10:15:20;;;;;;;11.75;5.93;;;;;;;;;;5070777;28;20131;-62
2021/07/02 10:17:47;;;;;;;11.65;6.85;;;;;;;;;;5070742;28;20079;-62
2021/07/02 10:20:15;;;;;;;10.93;6.53;;;;;;;;;;5070836;28;20563;-62
2021/07/02 10:22:44;;;;;;;11.35;6.38;;;;;;;;;;5071862;28;20048;-61
2021/07/02 10:25:12;;;;;;;11.52;7.18;;;;;;;;;;5074773;28;20052;-62
2021/07/02 10:27:39;;;;;;;11.23;6.43;;;;;;;;;;5074500;28;20033;-62
2021/07/02 10:30:07;;;;;;;10.15;6.45;;;;;;;;;;5074681;28;20119;-62
2021/07/02 10:32:33;;;;;;;11.07;7.07;;;;;;;;;;5074117;28;20128;-62
2021/07/02 10:35:00;;;;;;;11.40;6.30;;;;;;;;;;5070172;28;20056;-62
2021/07/02 10:37:27;;;;;;;14.10;6.82;;;;;;;;;;5074129;28;20524;-62
2021/07/02 10:39:53;;;;;;;10.95;7.18;;;;;;;;;;5074405;28;20048;-62
2021/07/02 10:42:20;;;;;;;10.75;6.75;;;;;;;;;;5074418;28;20415;-62
2021/07/02 10:44:55;;;;;;;10.95;7.15;;;;;;;;;;5080423;28;20146;-61
2021/07/02 10:47:22;;;;;;;14.20;7.28;;;;;;;;;;5083024;28;20453;-62
2021/07/02 10:49:50;;;;;;;14.43;7.80;;;;;;;;;;5079209;28;20052;-62
2021/07/02 10:52:24;;;;;;;10.60;7.30;;;;;;;;;;5058418;28;20048;-62
2021/07/02 10:54:52;;;;;;;15.70;7.32;;;;;;;;;;5082778;28;20835;-62
2021/07/02 10:57:19;;;;;;;12.57;7.30;;;;;;;;;;5059997;28;20040;-62
2021/07/02 10:59:52;;;;;;;13.05;7.47;;;;;;;;;;5081225;28;20091;-61
2021/07/02 11:02:19;;;;;;;13.02;6.68;;;;;;;;;;5078399;28;20109;-62
2021/07/02 11:04:45;;;;;;;11.65;6.72;;;;;;;;;;5085354;28;20055;-62
2021/07/02 11:07:15;;;;;;;11.50;6.72;;;;;;;;;;5073464;28;20048;-62
2021/07/02 11:09:44;;;;;;;10.70;6.45;;;;;;;;;;5074011;28;20063;-62
2021/07/02 11:12:12;;;;;;;10.73;7.40;;;;;;;;;;5073365;28;20052;-62
2021/07/02 11:15:08;;;;;;;10.70;6.85;;;;;;;;;;5067974;28;20059;-62
2021/07/02 11:17:36;;;;;;;11.35;7.55;;;;;;;;;;5073099;28;20492;-62
2021/07/02 11:20:06;;;;;;;16.52;8.23;;;;;;;;;;5073970;28;20048;-62
2021/07/02 11:22:35;;;;;;;22.70;8.45;;;;;;;;;;5072962;28;20056;-62
2021/07/02 11:25:14;;;;;;;12.73;7.88;;;;;;;;;;5074664;28;20082;-62
2021/07/02 11:27:47;;;;;;;12.48;7.00;;;;;;;;;;5074467;28;20052;-62
2021/07/02 11:32:54;;;;;;;14.10;8.57;;;;;;;;;;5077639;28;20509;-62
2021/07/02 11:35:23;;;;;;;15.00;8.95;;;;;;;;;;5073027;28;20048;-62
2021/07/02 11:38:03;;;;;;;14.23;8.80;;;;;;;;;;5073425;28;20051;-62
2021/07/02 11:40:30;;;;;;;15.93;8.75;;;;;;;;;;5073122;28;20080;-63
2021/07/02 11:42:57;;;;;;;12.68;9.43;;;;;;;;;;5079314;28;20043;-62
2021/07/02 11:45:52;;;;;;;14.00;8.80;;;;;;;;;;5076957;28;20401;-62
2021/07/02 11:48:22;;;;;;;14.60;9.13;;;;;;;;;;5060619;28;20052;-62
2021/07/02 11:50:49;;;;;;;15.05;9.32;;;;;;;;;;5073633;28;20049;-62
2021/07/02 11:53:32;;;;;;;14.43;9.90;;;;;;;;;;5082515;28;20044;-62
2021/07/02 11:55:59;;;;;;;14.68;10.85;;;;;;;;;;5073327;28;20067;-62
2021/07/02 11:58:29;;;;;;;17.52;10.63;;;;;;;;;;5072773;28;20496;-62
2021/07/02 12:00:57;;;;;;;19.23;11.45;;;;;;;;;;5072276;28;20587;-62
2021/07/02 12:03:24;;;;;;;15.23;11.00;;;;;;;;;;5072756;28;20040;-62
2021/07/02 12:05:57;;;;;;;17.95;11.73;;;;;;;;;;5073078;28;20048;-62
2021/07/02 12:08:24;;;;;;;18.95;10.82;;;;;;;;;;5071999;28;20051;-62
2021/07/02 12:11:09;;;;;;;19.50;12.52;;;;;;;;;;5073160;28;20500;-62
2021/07/02 12:13:35;;;;;;;19.40;12.70;;;;;;;;;;5072584;28;20170;-62
2021/07/02 12:16:06;;;;;;;20.30;12.57;;;;;;;;;;5072208;28;20059;-62
2021/07/02 12:18:32;;;;;;;14.27;7.70;;;;;;;;;;5072270;28;20091;-62
2021/07/02 12:21:06;;;;;;;20.55;11.68;;;;;;;;;;5054554;28;20115;-62
2021/07/02 12:23:36;;;;;;;22.02;11.82;;;;;;;;;;5056500;28;20048;-62
2021/07/02 12:26:22;;;;;;;22.70;11.80;;;;;;;;;;5073052;28;20044;-62
2021/07/02 12:28:56;;;;;;;21.70;11.77;;;;;;;;;;5070852;28;20044;-62
2021/07/02 12:31:23;;;;;;;18.92;11.73;;;;;;;;;;5071968;28;20045;-62
2021/07/02 12:33:49;;;;;;;16.90;10.73;;;;;;;;;;5072010;28;20036;-62
2021/07/02 12:36:15;;;;;;;19.45;12.15;;;;;;;;;;5053861;28;20040;-62
2021/07/02 12:39:01;;;;;;;19.95;12.48;;;;;;;;;;5075158;28;20048;-62
2021/07/02 12:41:38;;;;;;;20.13;12.13;;;;;;;;;;5075656;28;20052;-61
2021/07/02 12:44:05;;;;;;;19.40;12.40;;;;;;;;;;5074430;28;20036;-62
2021/07/02 12:46:32;;;;;;;21.38;12.95;;;;;;;;;;5071716;28;20043;-62
2021/07/02 12:49:17;;;;;;;22.40;13.20;;;;;;;;;;5071457;28;20052;-62
2021/07/02 12:57:32;;;;;;;29.33;13.70;;;;;;;;;;5071496;28;20044;-62
2021/07/02 13:00:12;;;;;;;22.02;13.82;;;;;;;;;;5071718;28;20049;-62
2021/07/02 13:02:49;;;;;;;22.05;13.30;;;;;;;;;;5056613;28;20508;-62
2021/07/02 13:05:25;;;;;;;20.73;12.68;;;;;;;;;;5053941;28;20090;-62
2021/07/02 13:07:55;;;;;;;19.80;12.43;;;;;;;;;;5070857;28;20064;-62
2021/07/02 13:10:28;;;;;;;25.73;12.63;;;;;;;;;;5070745;28;20123;-62
2021/07/02 13:13:03;;;;;;;17.75;11.65;;;;;;;;;;5084279;28;20572;-62
2021/07/02 13:15:30;;;;;;;21.48;12.93;;;;;;;;;;5072214;28;20044;-62
2021/07/02 13:17:57;;;;;;;18.35;12.30;;;;;;;;;;5069382;28;20070;-62
2021/07/02 13:20:24;;;;;;;21.55;12.30;;;;;;;;;;5071205;28;20087;-62
2021/07/02 13:23:00;;;;;;;15.93;10.52;;;;;;;;;;5074667;28;20071;-62
2021/07/02 13:25:27;;;;;;;17.30;11.38;;;;;;;;;;5054337;28;20072;-62
2021/07/02 13:27:57;;;;;;;19.50;11.77;;;;;;;;;;5078820;28;20113;-62
2021/07/02 13:30:29;;;;;;;21.00;11.48;;;;;;;;;;5080584;28;20123;-61
2021/07/02 13:33:09;;;;;;;19.42;11.85;;;;;;;;;;5058287;28;20079;-61
2021/07/02 13:35:36;;;;;;;20.13;10.20;;;;;;;;;;5062740;28;20123;-62
2021/07/02 13:38:07;;;;;;;14.63;9.52;;;;;;;;;;5074951;28;20072;-61
2021/07/02 13:40:34;;;;;;;16.77;8.45;;;;;;;;;;5072621;28;20036;-61
2021/07/02 13:43:04;;;;;;;18.27;9.93;;;;;;;;;;5071855;28;20044;-61
2021/07/02 13:45:30;;;;;;;17.02;9.45;;;;;;;;;;5072068;28;20412;-61
2021/07/02 13:48:06;;;;;;;15.20;9.13;;;;;;;;;;5070279;28;20044;-61
2021/07/02 13:50:32;;;;;;;15.73;8.90;;;;;;;;;;5068176;28;20053;-61
2021/07/02 13:52:58;;;;;;;15.02;9.45;;;;;;;;;;5074958;28;20048;-61
2021/07/02 13:55:25;;;;;;;17.80;8.85;;;;;;;;;;5071793;28;20068;-62
2021/07/02 13:57:51;;;;;;;12.23;8.85;;;;;;;;;;5067342;28;20282;-59
2021/07/02 14:00:17;;;;;;;15.13;9.15;;;;;;;;;;5066741;28;20052;-59
2021/07/02 14:02:44;;;;;;;12.63;8.32;;;;;;;;;;5071780;28;20047;-60
2021/07/02 14:05:10;;;;;;;13.68;8.77;;;;;;;;;;5072604;28;20075;-60
2021/07/02 14:07:37;;;;;;;14.48;9.23;;;;;;;;;;5076406;28;20045;-62
2021/07/02 14:10:03;;;;;;;13.18;7.55;;;;;;;;;;5072706;28;20146;-61
2021/07/02 14:12:29;;;;;;;14.40;8.15;;;;;;;;;;5073848;28;20392;-61
2021/07/02 14:14:56;;;;;;;12.10;7.60;;;;;;;;;;5073557;28;20450;-63
2021/07/02 14:17:22;;;;;;;13.18;7.60;;;;;;;;;;5073287;28;20072;-61
2021/07/02 14:19:49;;;;;;;14.05;8.63;;;;;;;;;;5077729;28;20084;-62
2021/07/02 14:22:15;;;;;;;10.75;7.13;;;;;;;;;;5075495;28;20135;-62
2021/07/02 14:24:42;;;;;;;10.55;7.53;;;;;;;;;;5074560;28;20040;-62
2021/07/02 14:27:08;;;;;;;12.43;7.07;;;;;;;;;;5068051;28;20497;-60
2021/07/02 14:29:34;;;;;;;8.85;6.40;;;;;;;;;;5070797;28;20044;-61
2021/07/02 14:32:00;;;;;;;8.73;6.13;;;;;;;;;;5094014;28;20056;-61
2021/07/02 14:34:27;;;;;;;9.23;5.85;;;;;;;;;;5075163;28;20067;-61
2021/07/02 14:36:53;;;;;;;7.70;5.13;;;;;;;;;;5064219;28;20056;-61
2021/07/02 14:39:19;;;;;;;8.63;5.80;;;;;;;;;;5072853;28;20108;-61
2021/07/02 14:41:46;;;;;;;8.98;5.53;;;;;;;;;;5070109;28;20068;-62
2021/07/02 14:44:13;;;;;;;11.88;5.68;;;;;;;;;;5073720;28;20467;-62
2021/07/02 14:46:39;;;;;;;7.57;5.30;;;;;;;;;;5074119;28;20500;-61
2021/07/02 14:49:05;;;;;;;7.40;5.38;;;;;;;;;;5072779;28;20049;-62
2021/07/02 14:51:32;;;;;;;6.13;5.10;;;;;;;;;;5073324;28;20048;-62